createdAt,value
2019-02-08T00:02:01.017Z,100256.13
2019-02-08T00:04:30.558Z,100256.80
2019-02-08T00:07:00.543Z,100261.63
2019-02-08T00:09:30.296Z,100258.33
2019-02-08T00:12:00.113Z,100264.80
2019-02-08T00:14:29.634Z,100264.25
2019-02-08T00:16:59.163Z,100265.55
2019-02-08T00:19:28.756Z,100274.27
2019-02-08T00:21:59.793Z,100274.58
2019-02-08T00:24:30.220Z,100276.20
2019-02-08T00:26:59.777Z,100270.81
2019-02-08T00:29:29.644Z,100271.63
2019-02-08T00:32:00.075Z,100281.78
2019-02-08T00:34:29.579Z,100279.44
2019-02-08T00:36:59.071Z,100282.83
2019-02-08T00:39:28.988Z,100278.67
2019-02-08T00:41:58.765Z,100286.36
2019-02-08T00:44:28.303Z,100276.91
2019-02-08T00:46:57.826Z,100279.06
2019-02-08T00:49:27.385Z,100285.05
2019-02-08T00:51:57.629Z,100287.67
2019-02-08T00:54:27.397Z,100277.41
2019-02-08T00:56:57.540Z,100276.88
2019-02-08T00:59:27.389Z,100282.45
2019-02-08T01:01:57.436Z,100279.06
2019-02-08T01:04:28.659Z,100290.63
2019-02-08T01:06:58.560Z,100263.38
2019-02-08T01:09:28.097Z,100287.35
2019-02-08T01:11:57.790Z,100287.63
2019-02-08T01:14:27.683Z,100290.33
2019-02-08T01:16:57.687Z,100295.31
2019-02-08T01:19:27.675Z,100255.80
2019-02-08T01:21:57.477Z,100294.15
2019-02-08T01:24:27.516Z,100285.38
2019-02-08T01:27:00.271Z,100292.77
2019-02-08T01:29:31.991Z,100282.68
2019-02-08T01:32:01.600Z,100286.43
2019-02-08T01:34:31.578Z,100293.64
2019-02-08T01:37:01.077Z,100284.84
2019-02-08T01:39:30.826Z,100300.34
2019-02-08T01:42:00.325Z,100298.17
2019-02-08T01:44:31.171Z,100292.52
2019-02-08T01:47:00.937Z,100288.16
2019-02-08T01:49:30.721Z,100288.68
2019-02-08T01:52:00.306Z,100297.00
2019-02-08T01:54:30.038Z,100306.80
2019-02-08T01:56:59.551Z,100304.27
2019-02-08T01:59:29.123Z,100307.68
2019-02-08T02:01:58.634Z,100301.35
2019-02-08T02:04:28.836Z,100303.00
2019-02-08T02:06:58.419Z,100303.70
2019-02-08T02:09:30.482Z,100315.01
2019-02-08T02:12:00.245Z,100302.27
2019-02-08T02:14:29.995Z,100303.84
2019-02-08T02:16:59.799Z,100306.65
2019-02-08T02:19:29.612Z,100309.64
2019-02-08T02:21:59.432Z,100313.57
2019-02-08T02:24:29.202Z,100314.23
2019-02-08T02:26:58.717Z,100308.31
2019-02-08T02:29:28.662Z,100313.91
2019-02-08T02:31:58.877Z,100317.45
2019-02-08T02:34:28.828Z,100319.91
2019-02-08T02:36:58.853Z,100318.16
2019-02-08T02:39:29.142Z,100320.44
2019-02-08T02:41:59.172Z,100318.37
2019-02-08T02:44:28.945Z,100324.67
2019-02-08T02:46:58.899Z,100337.61
2019-02-08T02:49:29.247Z,100334.58
2019-02-08T02:51:59.639Z,100339.14
2019-02-08T02:54:29.497Z,100338.34
2019-02-08T02:56:59.276Z,100335.50
2019-02-08T02:59:29.344Z,100339.26
2019-02-08T03:01:59.159Z,100335.75
2019-02-08T03:04:29.609Z,100338.19
2019-02-08T03:06:59.498Z,100333.67
2019-02-08T03:09:29.342Z,100330.70
2019-02-08T03:11:59.313Z,100335.68
2019-02-08T03:14:29.431Z,100328.19
2019-02-08T03:16:59.905Z,100333.84
2019-02-08T03:19:29.808Z,100330.12
2019-02-08T03:21:59.478Z,100326.97
2019-02-08T03:24:29.943Z,100328.73
2019-02-08T03:26:59.714Z,100325.22
2019-02-08T03:29:29.837Z,100330.95
2019-02-08T03:31:59.772Z,100335.36
2019-02-08T03:34:29.788Z,100331.52
2019-02-08T03:37:00.023Z,100325.55
2019-02-08T03:39:30.043Z,100336.52
2019-02-08T03:41:59.891Z,100334.09
2019-02-08T03:44:30.001Z,100343.80
2019-02-08T03:47:00.008Z,100347.84
2019-02-08T03:49:30.327Z,100343.98
2019-02-08T03:52:00.162Z,100348.72
2019-02-08T03:54:30.358Z,100349.11
2019-02-08T03:57:00.180Z,100348.34
2019-02-08T03:59:30.487Z,100360.20
2019-02-08T04:02:00.275Z,100362.73
2019-02-08T04:04:30.870Z,100354.95
2019-02-08T04:07:00.445Z,100353.71
2019-02-08T04:09:31.536Z,100355.52
2019-02-08T04:12:01.847Z,100353.59
2019-02-08T04:14:31.515Z,100362.78
2019-02-08T04:17:02.689Z,100352.28
2019-02-08T04:19:32.189Z,100357.66
2019-02-08T04:22:01.681Z,100358.61
2019-02-08T04:24:31.211Z,100349.21
2019-02-08T04:27:01.193Z,100349.64
2019-02-08T04:29:31.194Z,100356.19
2019-02-08T04:32:01.019Z,100356.19
2019-02-08T04:34:30.953Z,100349.09
2019-02-08T04:37:01.079Z,100354.39
2019-02-08T04:39:31.262Z,100368.59
2019-02-08T04:42:01.114Z,100364.92
2019-02-08T04:44:31.403Z,100360.64
2019-02-08T04:47:01.171Z,100359.67
2019-02-08T04:49:31.774Z,100371.73
2019-02-08T04:52:01.948Z,100365.66
2019-02-08T04:54:38.277Z,100381.41
2019-02-08T04:57:04.584Z,100364.80
2019-02-08T04:59:34.562Z,100370.16
2019-02-08T05:02:04.594Z,100366.34
2019-02-08T05:04:34.451Z,100372.00
2019-02-08T05:07:03.953Z,100376.09
2019-02-08T05:09:33.501Z,100371.81
2019-02-08T05:12:03.080Z,100367.66
2019-02-08T05:14:32.871Z,100375.13
2019-02-08T05:17:02.611Z,100360.83
2019-02-08T05:19:32.705Z,100360.56
2019-02-08T05:22:02.540Z,100362.44
2019-02-08T05:24:33.213Z,100358.78
2019-02-08T05:27:02.951Z,100357.02
2019-02-08T05:29:33.134Z,100358.13
2019-02-08T05:32:03.028Z,100353.55
2019-02-08T05:34:33.837Z,100348.20
2019-02-08T05:37:03.537Z,100345.25
2019-02-08T05:39:33.363Z,100352.88
2019-02-08T05:42:02.875Z,100350.93
2019-02-08T05:44:32.774Z,100347.22
2019-02-08T05:47:02.676Z,100355.38
2019-02-08T05:49:32.197Z,100345.17
2019-02-08T05:52:02.361Z,100338.58
2019-02-08T05:54:32.469Z,100349.57
2019-02-08T05:57:02.269Z,100354.42
2019-02-08T05:59:32.642Z,100357.59
2019-02-08T06:02:02.392Z,100358.61
2019-02-08T06:04:32.462Z,100354.01
2019-02-08T06:07:03.819Z,100354.69
2019-02-08T06:09:33.331Z,100362.00
2019-02-08T06:12:02.836Z,100351.98
2019-02-08T06:14:33.206Z,100356.88
2019-02-08T06:17:02.703Z,100346.45
2019-02-08T06:19:32.994Z,100345.19
2019-02-08T06:22:02.709Z,100336.77
2019-02-08T06:24:32.730Z,100339.39
2019-02-08T06:27:02.967Z,100354.86
2019-02-08T06:29:34.212Z,100345.86
2019-02-08T06:32:03.981Z,100357.56
2019-02-08T06:34:34.621Z,100362.39
2019-02-08T06:37:04.364Z,100359.48
2019-02-08T06:39:33.946Z,100344.89
2019-02-08T06:42:03.458Z,100360.45
2019-02-08T06:44:33.533Z,100353.89
2019-02-08T06:47:03.172Z,100356.22
2019-02-08T06:49:33.318Z,100359.26
2019-02-08T06:52:03.287Z,100365.64
2019-02-08T06:54:33.201Z,100368.53
2019-02-08T06:57:27.319Z,100363.14
2019-02-08T07:00:04.510Z,100363.19
2019-02-08T07:02:45.853Z,100348.98
2019-02-08T07:05:49.888Z,100355.37
2019-02-08T07:08:29.082Z,100348.48
2019-02-08T07:11:20.856Z,100358.41
2019-02-08T07:14:08.463Z,100363.59
2019-02-08T07:16:55.947Z,100362.17
2019-02-08T07:19:56.842Z,100360.23
2019-02-08T07:22:36.358Z,100367.41
2019-02-08T07:25:18.628Z,100368.94
2019-02-08T07:27:56.685Z,100370.72
2019-02-08T07:30:48.797Z,100367.97
2019-02-08T07:33:36.974Z,100363.81
2019-02-08T07:36:25.919Z,100377.34
2019-02-08T07:39:12.349Z,100375.19
2019-02-08T07:42:02.281Z,100379.97
2019-02-08T07:45:10.327Z,100375.86
2019-02-08T07:47:54.773Z,100378.64
2019-02-08T07:50:43.622Z,100378.27
2019-02-08T07:53:50.834Z,100366.44
2019-02-08T07:56:40.723Z,100380.20
2019-02-08T07:59:27.999Z,100391.62
2019-02-08T08:02:09.126Z,100391.31
2019-02-08T08:04:56.106Z,100378.42
2019-02-08T08:07:42.205Z,100384.03
2019-02-08T08:10:18.689Z,100375.59
2019-02-08T08:13:05.787Z,100382.49
2019-02-08T08:15:42.702Z,100375.87
2019-02-08T08:18:30.548Z,100371.95
2019-02-08T08:21:19.804Z,100379.90
2019-02-08T08:24:12.927Z,100373.13
2019-02-08T08:27:03.566Z,100369.41
2019-02-08T08:29:44.117Z,100371.79
2019-02-08T08:32:40.112Z,100370.02
2019-02-08T08:35:43.100Z,100378.48
2019-02-08T08:38:49.374Z,100372.59
2019-02-08T08:41:40.892Z,100383.23
2019-02-08T08:44:38.404Z,100369.55
2019-02-08T08:47:37.769Z,100376.34
2019-02-08T08:50:22.218Z,100366.69
2019-02-08T08:53:14.456Z,100373.20
2019-02-08T08:56:07.109Z,100364.01
2019-02-08T08:58:57.583Z,100362.09
2019-02-08T09:02:03.772Z,100368.13
2019-02-08T09:04:56.145Z,100364.47
2019-02-08T09:07:57.049Z,100361.23
2019-02-08T09:11:07.923Z,100362.22
2019-02-08T09:14:21.191Z,100347.50
2019-02-08T09:17:27.626Z,100339.37
2019-02-08T09:20:28.704Z,100337.84
2019-02-08T09:23:12.450Z,100335.50
2019-02-08T09:26:14.168Z,100338.22
2019-02-08T09:29:21.360Z,100307.03
2019-02-08T09:32:20.782Z,100342.28
2019-02-08T09:35:20.841Z,100337.67
2019-02-08T09:38:28.095Z,100345.36
2019-02-08T09:41:45.796Z,100334.73
2019-02-08T09:44:49.895Z,100338.87
2019-02-08T09:48:05.655Z,100349.12
2019-02-08T09:51:03.266Z,100347.42
2019-02-08T09:53:57.033Z,100344.16
2019-02-08T09:56:56.273Z,100335.40
2019-02-08T10:00:02.026Z,100335.22
2019-02-08T10:03:01.326Z,100345.13
2019-02-08T10:05:57.185Z,100345.13
2019-02-08T10:09:06.882Z,100337.17
2019-02-08T10:12:39.499Z,100347.75
2019-02-08T10:15:46.342Z,100348.33
2019-02-08T10:18:44.631Z,100346.98
2019-02-08T10:21:55.928Z,100333.62
2019-02-08T10:25:05.236Z,100339.30
2019-02-08T10:28:30.240Z,100334.94
2019-02-08T10:31:37.094Z,100356.05
2019-02-08T10:34:42.963Z,100349.97
2019-02-08T10:38:03.168Z,100342.05
2019-02-08T10:41:09.858Z,100339.65
2019-02-08T10:44:18.180Z,100326.64
2019-02-08T10:47:17.968Z,100324.87
2019-02-08T10:50:42.398Z,100340.99
2019-02-08T10:54:04.966Z,100321.83
2019-02-08T10:57:04.330Z,100325.39
2019-02-08T11:00:00.222Z,100334.80
2019-02-08T11:03:10.822Z,100304.34
2019-02-08T11:06:08.004Z,100311.87
2019-02-08T11:09:21.283Z,100299.14
2019-02-08T11:12:31.741Z,100317.48
2019-02-08T11:15:53.698Z,100317.83
2019-02-08T11:19:00.309Z,100311.84
2019-02-08T11:21:30.405Z,100296.91
2019-02-08T11:24:00.229Z,100300.32
2019-02-08T11:26:29.871Z,100294.81
2019-02-08T11:28:59.428Z,100293.11
2019-02-08T11:31:29.254Z,100295.98
2019-02-08T11:33:59.999Z,100289.61
2019-02-08T11:36:30.023Z,100292.59
2019-02-08T11:38:59.514Z,100283.11
2019-02-08T11:41:29.343Z,100284.98
2019-02-08T11:43:59.086Z,100273.89
2019-02-08T11:46:28.955Z,100276.59
2019-02-08T11:48:58.766Z,100271.75
2019-02-08T11:51:28.599Z,100259.42
2019-02-08T11:53:58.117Z,100272.60
2019-02-08T11:56:29.964Z,100263.61
2019-02-08T11:58:58.906Z,100257.66
2019-02-08T12:01:30.993Z,100257.66
2019-02-08T12:04:00.498Z,100252.73
2019-02-08T12:06:30.327Z,100261.71
2019-02-08T12:09:00.138Z,100251.39
2019-02-08T12:11:29.763Z,100250.61
2019-02-08T12:13:59.363Z,100246.53
2019-02-08T12:16:29.272Z,100237.11
2019-02-08T12:18:58.786Z,100228.50
2019-02-08T12:21:28.301Z,100234.63
2019-02-08T12:23:57.803Z,100225.12
2019-02-08T12:26:27.522Z,100223.73
2019-02-08T12:28:58.243Z,100220.97
2019-02-08T12:31:27.975Z,100219.95
2019-02-08T12:33:57.733Z,100219.73
2019-02-08T12:36:27.287Z,100212.60
2019-02-08T12:38:56.812Z,100206.01
2019-02-08T12:41:26.530Z,100219.58
2019-02-08T12:43:56.269Z,100212.50
2019-02-08T12:46:25.754Z,100196.83
2019-02-08T12:48:55.497Z,100204.91
2019-02-08T12:51:25.093Z,100209.87
2019-02-08T12:53:54.919Z,100210.72
2019-02-08T12:56:24.468Z,100202.67
2019-02-08T12:58:54.194Z,100211.30
2019-02-08T13:01:24.169Z,100202.92
2019-02-08T13:03:53.776Z,100211.80
2019-02-08T13:06:24.366Z,100202.10
2019-02-08T13:08:54.374Z,100203.28
2019-02-08T13:11:24.010Z,100202.33
2019-02-08T13:13:53.821Z,100200.54
2019-02-08T13:16:23.639Z,100191.08
2019-02-08T13:18:53.454Z,100196.05
2019-02-08T13:21:23.332Z,100196.05
2019-02-08T13:23:52.967Z,100188.38
2019-02-08T13:26:22.503Z,100183.05
2019-02-08T13:28:52.007Z,100177.48
2019-02-08T13:31:21.775Z,100180.35
2019-02-08T13:33:51.263Z,100178.02
2019-02-08T13:36:21.251Z,100170.89
2019-02-08T13:38:50.749Z,100166.65
2019-02-08T13:41:20.230Z,100154.73
2019-02-08T13:43:49.754Z,100154.73
2019-02-08T13:46:19.240Z,100150.53
2019-02-08T13:48:49.121Z,100157.19
2019-02-08T13:51:18.700Z,100143.95
2019-02-08T13:53:48.470Z,100144.72
2019-02-08T13:56:18.042Z,100144.48
2019-02-08T13:58:47.897Z,100144.79
2019-02-08T14:01:17.816Z,100141.25
2019-02-08T14:03:47.324Z,100140.30
2019-02-08T14:06:17.238Z,100143.59
2019-02-08T14:08:46.790Z,100137.12
2019-02-08T14:11:16.294Z,100138.45
2019-02-08T14:13:46.199Z,100134.63
2019-02-08T14:16:15.734Z,100142.63
2019-02-08T14:18:45.955Z,100136.39
2019-02-08T14:21:15.485Z,100143.34
2019-02-08T14:23:45.084Z,100139.78
2019-02-08T14:26:14.663Z,100144.20
2019-02-08T14:28:44.208Z,100141.97
2019-02-08T14:31:13.713Z,100132.65
2019-02-08T14:33:43.771Z,100140.44
2019-02-08T14:36:13.301Z,100134.78
2019-02-08T14:38:42.830Z,100119.23
2019-02-08T14:41:12.320Z,100124.63
2019-02-08T14:43:41.814Z,100124.63
2019-02-08T14:46:11.443Z,100117.80
2019-02-08T14:48:40.939Z,100121.86
2019-02-08T14:51:10.585Z,100110.14
2019-02-08T14:53:40.518Z,100114.03
2019-02-08T14:56:10.954Z,100109.25
2019-02-08T14:58:40.626Z,100103.67
2019-02-08T15:01:10.776Z,100097.56
2019-02-08T15:03:40.730Z,100109.30
2019-02-08T15:06:10.844Z,100094.09
2019-02-08T15:08:40.505Z,100096.55
2019-02-08T15:11:10.614Z,100096.31
2019-02-08T15:13:40.540Z,100067.30
2019-02-08T15:16:11.016Z,100091.28
2019-02-08T15:18:40.557Z,100094.92
2019-02-08T15:21:11.015Z,100097.76
2019-02-08T15:23:40.785Z,100084.71
2019-02-08T15:26:10.700Z,100080.69
2019-02-08T15:28:40.736Z,100084.47
2019-02-08T15:31:11.064Z,100073.15
2019-02-08T15:33:40.992Z,100072.39
2019-02-08T15:36:10.666Z,100067.84
2019-02-08T15:38:40.855Z,100063.33
2019-02-08T15:41:10.804Z,100060.34
2019-02-08T15:43:40.835Z,100050.97
2019-02-08T15:46:10.775Z,100061.73
2019-02-08T15:48:40.666Z,100042.11
2019-02-08T15:51:10.774Z,100029.89
2019-02-08T15:53:40.650Z,100043.65
2019-02-08T15:56:15.562Z,100027.33
2019-02-08T15:58:45.333Z,100028.16
2019-02-08T16:01:14.994Z,100037.97
2019-02-08T16:03:44.523Z,100030.56
2019-02-08T16:06:14.089Z,100039.28
2019-02-08T16:08:43.666Z,100029.61
2019-02-08T16:11:13.217Z,100027.68
2019-02-08T16:13:43.052Z,100021.57
2019-02-08T16:16:13.320Z,100023.91
2019-02-08T16:18:43.119Z,100014.52
2019-02-08T16:21:13.940Z,100013.81
2019-02-08T16:23:43.458Z,100006.92
2019-02-08T16:26:13.220Z,100015.85
2019-02-08T16:28:42.805Z,100010.09
2019-02-08T16:31:12.441Z,100001.70
2019-02-08T16:33:42.163Z,99992.27
2019-02-08T16:36:11.750Z,100000.93
2019-02-08T16:38:41.513Z,99999.54
2019-02-08T16:41:11.131Z,99980.81
2019-02-08T16:43:40.830Z,99990.96
2019-02-08T16:46:11.020Z,99981.84
2019-02-08T16:48:40.853Z,99987.08
2019-02-08T16:51:10.821Z,99982.72
2019-02-08T16:53:41.164Z,99980.89
2019-02-08T16:56:11.310Z,99978.19
2019-02-08T16:58:40.982Z,99986.10
2019-02-08T17:01:10.896Z,99977.73
2019-02-08T17:03:40.939Z,99981.34
2019-02-08T17:06:11.142Z,99982.33
2019-02-08T17:08:41.316Z,99979.11
2019-02-08T17:11:10.944Z,99973.55
2019-02-08T17:13:41.140Z,99974.87
2019-02-08T17:16:11.230Z,99970.40
2019-02-08T17:18:41.279Z,99972.09
2019-02-08T17:21:10.932Z,99971.21
2019-02-08T17:23:41.624Z,99962.18
2019-02-08T17:26:11.643Z,99963.56
2019-02-08T17:28:41.450Z,99961.08
2019-02-08T17:31:10.954Z,99968.65
2019-02-08T17:33:41.213Z,99974.69
2019-02-08T17:36:11.054Z,99971.67
2019-02-08T17:38:41.015Z,99972.97
2019-02-08T17:41:11.101Z,99958.52
2019-02-08T17:43:41.262Z,99951.17
2019-02-08T17:46:11.745Z,99945.31
2019-02-08T17:48:41.366Z,99940.05
2019-02-08T17:51:11.015Z,99956.55
2019-02-08T17:53:41.425Z,99936.97
2019-02-08T17:56:11.184Z,99929.95
2019-02-08T17:58:41.445Z,99929.00
2019-02-08T18:01:12.284Z,99925.74
2019-02-08T18:03:42.668Z,99916.59
2019-02-08T18:06:13.557Z,99913.89
2019-02-08T18:08:43.468Z,99886.09
2019-02-08T18:11:13.324Z,99893.45
2019-02-08T18:13:42.902Z,99884.20
2019-02-08T18:16:13.766Z,99872.45
2019-02-08T18:18:43.436Z,99876.22
2019-02-08T18:21:12.960Z,99866.34
2019-02-08T18:23:42.855Z,99863.55
2019-02-08T18:26:13.536Z,99863.97
2019-02-08T18:28:43.150Z,99852.34
2019-02-08T18:31:13.420Z,99845.30
2019-02-08T18:33:43.323Z,99845.94
2019-02-08T18:36:13.104Z,99845.67
2019-02-08T18:38:43.363Z,99844.52
2019-02-08T18:41:13.139Z,99824.49
2019-02-08T18:43:42.871Z,99811.88
2019-02-08T18:46:12.907Z,99817.14
2019-02-08T18:48:42.450Z,99807.75
2019-02-08T18:51:11.986Z,99810.87
2019-02-08T18:53:41.545Z,99810.41
2019-02-08T18:56:11.217Z,99807.27
2019-02-08T18:58:40.716Z,99800.88
2019-02-08T19:01:10.593Z,99782.26
2019-02-08T19:03:40.223Z,99783.37
2019-02-08T19:06:10.603Z,99776.42
2019-02-08T19:08:40.648Z,99758.35
2019-02-08T19:11:10.218Z,99790.72
2019-02-08T19:13:39.800Z,99775.12
2019-02-08T19:16:10.384Z,99762.60
2019-02-08T19:18:40.286Z,99768.74
2019-02-08T19:21:09.962Z,99754.97
2019-02-08T19:23:39.821Z,99757.81
2019-02-08T19:26:09.602Z,99762.88
2019-02-08T19:28:39.367Z,99751.23
2019-02-08T19:31:08.943Z,99747.00
2019-02-08T19:33:38.522Z,99741.17
2019-02-08T19:36:08.147Z,99751.59
2019-02-08T19:38:37.678Z,99749.55
2019-02-08T19:41:07.324Z,99733.36
2019-02-08T19:43:37.552Z,99741.26
2019-02-08T19:46:07.157Z,99739.59
2019-02-08T19:48:37.064Z,99729.70
2019-02-08T19:51:06.694Z,99728.19
2019-02-08T19:53:36.798Z,99723.39
2019-02-08T19:56:06.431Z,99731.20
2019-02-08T19:58:36.170Z,99747.77
2019-02-08T20:01:06.151Z,99733.56
2019-02-08T20:03:36.041Z,99726.41
2019-02-08T20:06:05.796Z,99723.03
2019-02-08T20:08:35.302Z,99724.70
2019-02-08T20:11:05.010Z,99719.44
2019-02-08T20:13:34.944Z,99716.16
2019-02-08T20:16:04.761Z,99710.42
2019-02-08T20:18:34.309Z,99714.56
2019-02-08T20:21:04.241Z,99713.25
2019-02-08T20:23:33.746Z,99697.72
2019-02-08T20:26:03.803Z,99690.46
2019-02-08T20:28:33.592Z,99693.66
2019-02-08T20:31:03.532Z,99677.09
2019-02-08T20:33:33.589Z,99680.40
2019-02-08T20:36:03.088Z,99668.83
2019-02-08T20:38:32.676Z,99661.12
2019-02-08T20:41:02.261Z,99666.59
2019-02-08T20:43:31.835Z,99672.58
2019-02-08T20:46:01.547Z,99657.53
2019-02-08T20:48:31.169Z,99651.91
2019-02-08T20:51:00.928Z,99654.34
2019-02-08T20:53:30.433Z,99652.10
2019-02-08T20:56:00.212Z,99649.35
2019-02-08T20:58:30.173Z,99647.88
2019-02-08T21:00:59.950Z,99646.55
2019-02-08T21:03:29.553Z,99639.97
2019-02-08T21:05:59.292Z,99634.23
2019-02-08T21:08:28.976Z,99638.81
2019-02-08T21:10:58.777Z,99638.06
2019-02-08T21:13:28.509Z,99632.42
2019-02-08T21:15:58.179Z,99630.55
2019-02-08T21:18:28.139Z,99605.90
2019-02-08T21:20:57.907Z,99628.95
2019-02-08T21:23:27.471Z,99615.59
2019-02-08T21:25:57.198Z,99609.67
2019-02-08T21:28:26.839Z,99614.84
2019-02-08T21:30:56.392Z,99601.30
2019-02-08T21:33:26.054Z,99603.93
2019-02-08T21:35:55.795Z,99600.06
2019-02-08T21:38:25.393Z,99592.92
2019-02-08T21:40:54.883Z,99582.67
2019-02-08T21:43:24.459Z,99582.02
2019-02-08T21:45:54.623Z,99578.70
2019-02-08T21:48:24.243Z,99574.08
2019-02-08T21:50:54.285Z,99572.31
2019-02-08T21:53:23.889Z,99576.49
2019-02-08T21:55:53.473Z,99569.31
2019-02-08T21:58:23.106Z,99565.96
2019-02-08T22:00:52.619Z,99563.60
2019-02-08T22:03:22.964Z,99563.33
2019-02-08T22:05:58.619Z,99555.98
2019-02-08T22:08:29.303Z,99553.84
2019-02-08T22:10:59.087Z,99552.13
2019-02-08T22:13:28.715Z,99544.20
2019-02-08T22:16:01.504Z,99537.60
2019-02-08T22:18:31.162Z,99537.89
2019-02-08T22:21:01.930Z,99529.99
2019-02-08T22:23:32.071Z,99536.08
2019-02-08T22:26:02.029Z,99530.45
2019-02-08T22:28:31.692Z,99516.44
2019-02-08T22:31:01.585Z,99527.36
2019-02-08T22:33:31.115Z,99509.97
2019-02-08T22:36:00.872Z,99511.01
2019-02-08T22:38:30.703Z,99500.47
2019-02-08T22:41:00.518Z,99501.62
2019-02-08T22:43:30.279Z,99515.27
2019-02-08T22:46:00.113Z,99519.70
2019-02-08T22:48:29.627Z,99509.97
2019-02-08T22:50:59.211Z,99505.24
2019-02-08T22:53:28.805Z,99512.59
2019-02-08T22:55:58.506Z,99508.98
2019-02-08T22:58:28.085Z,99500.23
2019-02-08T23:01:28.577Z,99500.23
2019-02-08T23:04:00.782Z,99499.34
2019-02-08T23:06:30.348Z,99486.34
2019-02-08T23:08:59.927Z,99483.42
2019-02-08T23:11:29.744Z,99494.16
2019-02-08T23:13:59.348Z,99473.44
2019-02-08T23:16:28.914Z,99482.48
2019-02-08T23:18:58.421Z,99475.03
2019-02-08T23:21:27.904Z,99464.77
2019-02-08T23:23:57.418Z,99466.55
2019-02-08T23:26:27.017Z,99465.44
2019-02-08T23:28:56.751Z,99464.69
2019-02-08T23:31:26.799Z,99461.22
2019-02-08T23:33:56.513Z,99455.53
2019-02-08T23:36:26.024Z,99451.80
2019-02-08T23:38:55.588Z,99446.59
2019-02-08T23:41:25.362Z,99445.37
2019-02-08T23:43:55.347Z,99438.81
2019-02-08T23:46:25.090Z,99435.59
2019-02-08T23:48:54.583Z,99433.00
2019-02-08T23:51:24.062Z,99441.27
2019-02-08T23:53:53.560Z,99421.67
2019-02-08T23:56:24.260Z,99410.58
2019-02-08T23:58:53.764Z,99402.58
